createdAt,value
2023-04-10T00:02:16.966Z,13.15
2023-04-10T00:04:45.312Z,14.68
2023-04-10T00:07:15.661Z,14.82
2023-04-10T00:09:43.885Z,14.85
2023-04-10T00:12:12.259Z,13.70
2023-04-10T00:14:40.459Z,14.07
2023-04-10T00:17:11.013Z,12.40
2023-04-10T00:19:39.203Z,16.30
2023-04-10T00:22:07.411Z,14.82
2023-04-10T00:24:39.600Z,14.52
2023-04-10T00:27:08.317Z,16.38
2023-04-10T00:29:36.830Z,13.68
2023-04-10T00:32:05.160Z,14.95
2023-04-10T00:34:33.443Z,14.35
2023-04-10T00:37:01.698Z,14.35
2023-04-10T00:39:32.640Z,15.07
2023-04-10T00:42:02.611Z,16.15
2023-04-10T00:44:31.029Z,15.85
2023-04-10T00:46:59.225Z,13.52
2023-04-10T00:49:27.654Z,14.60
2023-04-10T00:51:58.355Z,16.08
2023-04-10T00:54:27.573Z,14.90
2023-04-10T00:56:57.353Z,19.67
2023-04-10T00:59:27.143Z,16.67
2023-04-10T01:01:55.732Z,13.75
2023-04-10T01:04:26.596Z,18.02
2023-04-10T01:07:00.320Z,16.20
2023-04-10T01:09:42.437Z,15.70
2023-04-10T01:12:22.902Z,15.65
2023-04-10T01:15:02.458Z,16.27
2023-04-10T01:17:42.015Z,16.50
2023-04-10T01:20:14.301Z,16.70
2023-04-10T01:22:53.243Z,14.73
2023-04-10T01:25:39.535Z,15.65
2023-04-10T01:28:21.578Z,13.95
2023-04-10T01:30:53.804Z,20.20
2023-04-10T01:33:27.544Z,20.58
2023-04-10T01:35:59.352Z,17.08
2023-04-10T01:38:31.198Z,14.73
2023-04-10T01:41:02.012Z,15.52
2023-04-10T01:43:33.094Z,17.00
2023-04-10T01:46:04.257Z,13.75
2023-04-10T01:48:33.181Z,20.85
2023-04-10T01:51:05.398Z,17.50
2023-04-10T01:53:35.701Z,15.52
2023-04-10T01:56:04.466Z,16.40
2023-04-10T01:58:40.308Z,16.85
2023-04-10T02:01:16.598Z,16.65
2023-04-10T02:03:51.113Z,16.42
2023-04-10T02:06:27.996Z,20.58
2023-04-10T02:08:59.371Z,16.27
2023-04-10T02:11:35.064Z,16.77
2023-04-10T02:14:08.954Z,13.75
2023-04-10T02:16:40.755Z,15.50
2023-04-10T02:19:10.801Z,16.50
2023-04-10T02:21:39.954Z,16.23
2023-04-10T02:24:08.944Z,15.43
2023-04-10T02:26:46.416Z,18.08
2023-04-10T02:29:14.645Z,15.27
2023-04-10T02:31:45.007Z,14.27
2023-04-10T02:34:13.870Z,14.68
2023-04-10T02:36:42.096Z,15.13
2023-04-10T02:39:13.104Z,15.18
2023-04-10T02:41:49.110Z,17.52
2023-04-10T02:44:17.340Z,15.90
2023-04-10T02:46:47.573Z,16.80
2023-04-10T02:49:16.411Z,13.18
2023-04-10T02:51:45.671Z,14.45
2023-04-10T02:54:13.847Z,14.90
2023-04-10T02:56:43.703Z,18.13
2023-04-10T02:59:12.136Z,15.05
2023-04-10T03:01:40.765Z,15.60
2023-04-10T03:04:10.799Z,15.65
2023-04-10T03:06:41.633Z,13.98
2023-04-10T03:09:10.121Z,14.27
2023-04-10T03:11:38.588Z,17.70
2023-04-10T03:14:09.637Z,17.02
2023-04-10T03:16:38.274Z,20.13
2023-04-10T03:19:06.574Z,19.83
2023-04-10T03:21:36.570Z,17.80
2023-04-10T03:24:06.145Z,19.13
2023-04-10T03:26:34.495Z,16.48
2023-04-10T03:29:02.836Z,15.80
2023-04-10T03:31:31.535Z,21.55
2023-04-10T03:34:02.380Z,16.30
2023-04-10T03:36:30.663Z,20.10
2023-04-10T03:39:00.265Z,19.83
2023-04-10T03:41:28.484Z,20.30
2023-04-10T03:43:56.853Z,26.77
2023-04-10T03:46:25.791Z,18.52
2023-04-10T03:48:54.312Z,18.73
2023-04-10T03:51:24.469Z,18.17
2023-04-10T03:53:53.004Z,22.00
2023-04-10T03:56:22.860Z,19.85
2023-04-10T03:58:51.274Z,21.02
2023-04-10T04:01:20.737Z,20.33
2023-04-10T04:04:03.203Z,16.98
2023-04-10T04:06:50.120Z,19.55
2023-04-10T04:09:29.290Z,20.45
2023-04-10T04:12:07.323Z,19.70
2023-04-10T04:14:35.783Z,24.50
2023-04-10T04:17:19.637Z,22.35
2023-04-10T04:20:09.444Z,22.08
2023-04-10T04:22:46.705Z,22.40
2023-04-10T04:25:20.834Z,22.15
2023-04-10T04:28:09.756Z,25.00
2023-04-10T04:30:45.202Z,20.63
2023-04-10T04:33:20.334Z,25.35
2023-04-10T04:36:00.940Z,23.67
2023-04-10T04:38:49.402Z,23.55
2023-04-10T04:41:42.154Z,21.27
2023-04-10T04:44:21.296Z,19.60
2023-04-10T04:47:01.263Z,21.50
2023-04-10T04:49:48.073Z,23.52
2023-04-10T04:52:25.647Z,23.27
2023-04-10T04:55:15.428Z,22.02
2023-04-10T04:58:06.206Z,15.55
2023-04-10T05:00:45.033Z,21.00
2023-04-10T05:03:32.553Z,19.85
2023-04-10T05:06:24.249Z,20.13
2023-04-10T05:09:15.572Z,18.55
2023-04-10T05:12:15.820Z,19.67
2023-04-10T05:15:01.774Z,15.75
2023-04-10T05:17:42.136Z,19.00
2023-04-10T05:20:31.216Z,21.27
2023-04-10T05:23:16.742Z,22.27
2023-04-10T05:25:47.579Z,16.20
2023-04-10T05:28:23.387Z,17.35
2023-04-10T05:31:23.987Z,21.45
2023-04-10T05:34:12.837Z,17.95
2023-04-10T05:37:16.426Z,15.18
2023-04-10T05:40:09.733Z,20.73
2023-04-10T05:42:57.620Z,15.30
2023-04-10T05:45:46.205Z,20.90
2023-04-10T05:48:28.705Z,17.33
2023-04-10T05:51:16.555Z,15.18
2023-04-10T05:54:05.871Z,15.82
2023-04-10T05:56:52.663Z,16.17
2023-04-10T05:59:45.486Z,15.60
2023-04-10T06:02:33.511Z,17.17
2023-04-10T06:05:02.156Z,14.88
2023-04-10T06:07:34.571Z,15.82
2023-04-10T06:10:06.143Z,15.82
2023-04-10T06:12:37.327Z,18.15
2023-04-10T06:15:13.015Z,16.83
2023-04-10T06:17:44.971Z,17.50
2023-04-10T06:20:13.830Z,16.70
2023-04-10T06:22:43.430Z,22.30
2023-04-10T06:25:11.718Z,17.05
2023-04-10T06:27:40.250Z,20.10
2023-04-10T06:30:11.938Z,17.65
2023-04-10T06:32:40.148Z,16.85
2023-04-10T06:35:11.667Z,17.42
2023-04-10T06:37:39.888Z,16.52
2023-04-10T06:40:11.300Z,19.00
2023-04-10T06:42:39.519Z,18.38
2023-04-10T06:45:13.775Z,15.07
2023-04-10T06:47:41.999Z,15.77
2023-04-10T06:50:11.009Z,17.80
2023-04-10T06:52:39.260Z,14.88
2023-04-10T06:55:12.876Z,13.65
2023-04-10T06:57:41.991Z,18.27
2023-04-10T07:00:13.986Z,16.95
2023-04-10T07:02:42.220Z,18.08
2023-04-10T07:05:10.882Z,13.75
2023-04-10T07:07:39.108Z,13.02
2023-04-10T07:10:10.087Z,13.45
2023-04-10T07:12:38.226Z,13.30
2023-04-10T07:15:08.085Z,16.85
2023-04-10T07:17:36.526Z,19.45
2023-04-10T07:20:05.899Z,19.20
2023-04-10T07:22:34.064Z,16.67
2023-04-10T07:25:02.329Z,19.50
2023-04-10T07:27:32.484Z,17.75
2023-04-10T07:30:02.708Z,16.85
2023-04-10T07:32:31.009Z,17.90
2023-04-10T07:34:59.224Z,17.88
2023-04-10T07:37:27.721Z,17.50
2023-04-10T07:39:56.187Z,19.77
2023-04-10T07:42:24.413Z,16.95
2023-04-10T07:44:53.971Z,19.83
2023-04-10T07:47:22.231Z,15.30
2023-04-10T07:49:53.422Z,17.20
2023-04-10T07:52:23.977Z,17.50
2023-04-10T07:54:52.395Z,17.70
2023-04-10T07:57:20.594Z,15.75
2023-04-10T07:59:48.808Z,17.90
2023-04-10T08:02:18.466Z,14.48
2023-04-10T08:04:46.974Z,16.77
2023-04-10T08:07:15.513Z,14.30
2023-04-10T08:09:44.846Z,16.75
2023-04-10T08:12:13.068Z,15.68
2023-04-10T08:14:41.787Z,12.15
2023-04-10T08:17:14.541Z,17.05
2023-04-10T08:19:44.354Z,15.27
2023-04-10T08:22:12.666Z,17.08
2023-04-10T08:24:40.853Z,20.13
2023-04-10T08:27:09.059Z,17.88
2023-04-10T08:29:37.247Z,18.20
2023-04-10T08:32:06.113Z,19.77
2023-04-10T08:34:34.299Z,15.90
2023-04-10T08:37:07.842Z,12.13
2023-04-10T08:39:37.059Z,18.80
2023-04-10T08:42:07.158Z,15.75
2023-04-10T08:44:37.082Z,19.40
2023-04-10T08:47:06.475Z,16.55
2023-04-10T08:49:42.398Z,20.55
2023-04-10T08:52:16.070Z,19.15
2023-04-10T08:54:49.839Z,22.48
2023-04-10T08:57:20.474Z,17.13
2023-04-10T08:59:49.352Z,19.80
2023-04-10T09:02:17.834Z,17.17
2023-04-10T09:04:50.108Z,17.35
2023-04-10T09:07:20.169Z,15.15
2023-04-10T09:09:48.388Z,16.00
2023-04-10T09:12:17.881Z,14.18
2023-04-10T09:14:46.026Z,17.75
2023-04-10T09:17:18.811Z,19.02
2023-04-10T09:19:48.389Z,15.00
2023-04-10T09:22:17.614Z,17.42
2023-04-10T09:24:48.493Z,14.43
2023-04-10T09:27:33.592Z,14.48
2023-04-10T09:30:02.486Z,14.18
2023-04-10T09:32:48.556Z,14.77
2023-04-10T09:35:17.305Z,10.45
2023-04-10T09:37:46.928Z,10.60
2023-04-10T09:40:25.343Z,11.00
2023-04-10T09:42:55.902Z,11.32
2023-04-10T09:45:24.101Z,11.20
2023-04-10T09:48:07.029Z,10.70
2023-04-10T09:50:39.637Z,11.07
2023-04-10T09:53:08.998Z,11.13
2023-04-10T09:55:38.879Z,11.35
2023-04-10T09:58:07.994Z,14.32
2023-04-10T10:00:41.446Z,11.02
2023-04-10T10:03:11.481Z,10.52
2023-04-10T10:05:41.866Z,12.65
2023-04-10T10:08:12.435Z,11.77
2023-04-10T10:10:47.996Z,13.32
2023-04-10T10:13:18.990Z,10.13
2023-04-10T10:15:53.119Z,11.60
2023-04-10T10:18:28.333Z,9.63
2023-04-10T10:20:57.947Z,11.43
2023-04-10T10:23:27.341Z,12.02
2023-04-10T10:26:00.611Z,11.05
2023-04-10T10:28:32.504Z,10.75
2023-04-10T10:31:02.412Z,11.63
2023-04-10T10:33:31.814Z,11.15
2023-04-10T10:36:01.691Z,10.90
2023-04-10T10:38:33.444Z,12.75
2023-04-10T10:41:10.221Z,11.55
2023-04-10T10:43:49.206Z,12.70
2023-04-10T10:46:25.571Z,9.95
2023-04-10T10:48:58.229Z,11.30
2023-04-10T10:51:44.344Z,11.07
2023-04-10T10:54:32.701Z,11.57
2023-04-10T10:57:03.167Z,11.00
2023-04-10T10:59:57.293Z,10.13
2023-04-10T11:02:25.694Z,10.38
2023-04-10T11:04:53.976Z,11.70
2023-04-10T11:07:22.184Z,10.05
2023-04-10T11:09:54.632Z,10.15
2023-04-10T11:12:25.911Z,9.95
2023-04-10T11:15:01.383Z,8.95
2023-04-10T11:17:49.973Z,9.52
2023-04-10T11:20:19.358Z,9.43
2023-04-10T11:23:13.013Z,8.07
2023-04-10T11:25:54.592Z,8.75
2023-04-10T11:28:42.283Z,8.05
2023-04-10T11:31:22.197Z,8.32
2023-04-10T11:34:02.235Z,6.88
2023-04-10T11:36:33.208Z,9.40
2023-04-10T11:39:02.589Z,8.65
2023-04-10T11:41:31.961Z,9.40
2023-04-10T11:44:03.052Z,6.85
2023-04-10T11:46:31.877Z,5.97
2023-04-10T11:49:02.836Z,8.85
2023-04-10T11:51:31.776Z,9.15
2023-04-10T11:54:07.911Z,7.80
2023-04-10T11:56:36.881Z,7.82
2023-04-10T11:59:10.716Z,10.10
2023-04-10T12:01:41.271Z,16.58
2023-04-10T12:04:17.463Z,11.95
2023-04-10T12:06:47.171Z,11.07
2023-04-10T12:09:17.316Z,9.23
2023-04-10T12:11:56.880Z,8.98
2023-04-10T12:14:34.426Z,9.15
2023-04-10T12:17:03.621Z,7.60
2023-04-10T12:19:32.349Z,5.68
2023-04-10T12:22:01.957Z,7.72
2023-04-10T12:24:43.446Z,8.45
2023-04-10T12:27:17.920Z,7.55
2023-04-10T12:29:48.734Z,6.85
2023-04-10T12:32:17.571Z,5.72
2023-04-10T12:34:51.745Z,5.45
2023-04-10T12:37:20.054Z,9.73
2023-04-10T12:39:48.233Z,6.07
2023-04-10T12:42:17.841Z,4.82
2023-04-10T12:44:55.283Z,5.57
2023-04-10T12:47:24.198Z,5.00
2023-04-10T12:50:06.209Z,5.20
2023-04-10T12:52:34.515Z,6.28
2023-04-10T12:55:16.230Z,5.88
2023-04-10T12:57:46.227Z,5.88
2023-04-10T13:00:18.017Z,6.10
2023-04-10T13:02:47.668Z,6.22
2023-04-10T13:05:16.501Z,5.68
2023-04-10T13:07:44.814Z,6.07
2023-04-10T13:10:13.322Z,7.35
2023-04-10T13:12:42.037Z,5.45
2023-04-10T13:15:11.718Z,6.10
2023-04-10T13:17:42.955Z,5.80
2023-04-10T13:20:13.643Z,5.70
2023-04-10T13:22:41.904Z,4.80
2023-04-10T13:25:11.133Z,5.38
2023-04-10T13:27:39.330Z,4.60
2023-04-10T13:30:09.652Z,6.03
2023-04-10T13:32:38.037Z,4.70
2023-04-10T13:35:08.935Z,3.22
2023-04-10T13:37:37.172Z,3.55
2023-04-10T13:40:06.149Z,3.70
2023-04-10T13:42:35.947Z,3.65
2023-04-10T13:45:05.912Z,4.90
2023-04-10T13:47:34.109Z,11.13
2023-04-10T13:50:03.846Z,15.05
2023-04-10T13:52:34.399Z,12.25
2023-04-10T13:55:03.193Z,14.95
2023-04-10T13:57:31.445Z,10.30
2023-04-10T13:59:59.622Z,12.75
2023-04-10T14:02:28.035Z,15.52
2023-04-10T14:04:56.311Z,13.65
2023-04-10T14:07:24.471Z,12.23
2023-04-10T14:09:54.065Z,11.50
2023-04-10T14:12:23.136Z,10.57
2023-04-10T14:14:51.432Z,11.70
2023-04-10T14:17:19.611Z,10.52
2023-04-10T14:19:51.318Z,9.90
2023-04-10T14:22:19.720Z,12.07
2023-04-10T14:24:47.995Z,9.77
2023-04-10T14:27:18.009Z,11.45
2023-04-10T14:29:54.297Z,11.45
2023-04-10T14:32:23.640Z,11.70
2023-04-10T14:34:54.696Z,10.52
2023-04-10T14:37:22.873Z,9.07
2023-04-10T14:39:51.193Z,8.85
2023-04-10T14:42:20.733Z,6.82
2023-04-10T14:44:48.910Z,5.82
2023-04-10T14:47:17.109Z,7.20
2023-04-10T14:49:45.354Z,4.32
2023-04-10T14:52:13.520Z,4.40
2023-04-10T14:54:41.771Z,4.22
2023-04-10T14:57:09.976Z,4.85
2023-04-10T14:59:39.595Z,4.07
2023-04-10T15:02:08.272Z,4.50
2023-04-10T15:04:36.824Z,5.25
2023-04-10T15:07:05.077Z,4.18
2023-04-10T15:09:33.639Z,4.00
2023-04-10T15:12:01.948Z,4.53
2023-04-10T15:14:30.187Z,4.15
2023-04-10T15:16:59.799Z,4.55
2023-04-10T15:19:28.081Z,4.95
2023-04-10T15:21:56.537Z,4.70
2023-04-10T15:24:24.753Z,6.15
2023-04-10T15:26:53.470Z,7.63
2023-04-10T15:29:21.966Z,8.25
2023-04-10T15:31:52.341Z,4.90
2023-04-10T15:34:21.999Z,5.38
2023-04-10T15:36:50.197Z,4.78
2023-04-10T15:39:18.376Z,4.57
2023-04-10T15:41:48.133Z,3.35
2023-04-10T15:44:16.325Z,3.92
2023-04-10T15:46:47.062Z,4.22
2023-04-10T15:49:29.557Z,3.05
2023-04-10T15:52:12.857Z,3.85
2023-04-10T15:54:41.146Z,4.90
2023-04-10T15:57:09.439Z,5.25
2023-04-10T15:59:38.105Z,9.35
2023-04-10T16:02:06.462Z,7.95
2023-04-10T16:04:35.132Z,11.82
2023-04-10T16:07:04.900Z,12.38
2023-04-10T16:09:34.710Z,18.17
2023-04-10T16:12:03.121Z,14.02
2023-04-10T16:14:31.328Z,13.75
2023-04-10T16:16:59.529Z,17.27
2023-04-10T16:19:31.090Z,21.48
2023-04-10T16:21:59.448Z,21.52
2023-04-10T16:24:29.092Z,21.90
2023-04-10T16:26:57.304Z,24.80
2023-04-10T16:29:25.572Z,24.73
2023-04-10T16:31:53.867Z,28.23
2023-04-10T16:34:22.174Z,25.17
2023-04-10T16:36:50.325Z,25.45
2023-04-10T16:39:18.501Z,25.63
2023-04-10T16:41:48.076Z,25.65
2023-04-10T16:44:16.312Z,24.98
2023-04-10T16:46:44.673Z,25.98
2023-04-10T16:49:12.865Z,24.13
2023-04-10T16:51:41.080Z,24.48
2023-04-10T16:54:09.615Z,26.27
2023-04-10T16:56:40.614Z,24.98
2023-04-10T16:59:10.190Z,25.63
2023-04-10T17:01:40.521Z,27.33
2023-04-10T17:04:09.179Z,27.20
2023-04-10T17:06:37.525Z,26.50
2023-04-10T17:09:06.032Z,26.33
2023-04-10T17:11:34.242Z,25.45
2023-04-10T17:14:03.119Z,25.42
2023-04-10T17:16:32.940Z,26.10
2023-04-10T17:19:01.128Z,26.85
2023-04-10T17:21:29.407Z,24.70
2023-04-10T17:23:57.602Z,26.08
2023-04-10T17:26:25.877Z,23.75
2023-04-10T17:28:54.363Z,26.67
2023-04-10T17:31:22.730Z,26.27
2023-04-10T17:33:52.255Z,24.63
2023-04-10T17:36:20.803Z,22.67
2023-04-10T17:38:53.681Z,21.83
2023-04-10T17:41:22.301Z,19.23
2023-04-10T17:43:50.909Z,20.85
2023-04-10T17:46:19.145Z,20.98
2023-04-10T17:48:47.380Z,20.63
2023-04-10T17:51:16.939Z,27.52
2023-04-10T17:53:46.103Z,24.50
2023-04-10T17:56:20.818Z,22.13
2023-04-10T17:58:49.065Z,24.23
2023-04-10T18:01:30.177Z,27.42
2023-04-10T18:03:59.118Z,28.83
2023-04-10T18:06:28.895Z,29.00
2023-04-10T18:08:57.610Z,28.48
2023-04-10T18:11:28.462Z,17.48
2023-04-10T18:13:59.405Z,4.05
2023-04-10T18:16:28.548Z,3.20
2023-04-10T18:18:56.878Z,2.38
2023-04-10T18:21:27.155Z,3.40
2023-04-10T18:23:56.767Z,2.38
2023-04-10T18:26:24.909Z,2.60
2023-04-10T18:28:53.564Z,1.75
2023-04-10T18:31:22.548Z,2.55
2023-04-10T18:34:03.715Z,2.28
2023-04-10T18:36:35.824Z,1.70
2023-04-10T18:39:05.760Z,2.42
2023-04-10T18:41:36.783Z,2.13
2023-04-10T18:44:06.311Z,2.00
2023-04-10T18:46:34.895Z,2.10
2023-04-10T18:49:03.544Z,1.98
2023-04-10T18:51:35.001Z,2.40
2023-04-10T18:54:05.152Z,2.03
2023-04-10T18:56:35.711Z,1.73
2023-04-10T18:59:04.239Z,1.50
2023-04-10T19:01:34.241Z,1.88
2023-04-10T19:04:02.886Z,1.83
2023-04-10T19:06:35.078Z,2.03
2023-04-10T19:09:03.571Z,2.25
2023-04-10T19:11:33.621Z,3.05
2023-04-10T19:14:01.865Z,2.55
2023-04-10T19:16:30.392Z,2.67
2023-04-10T19:19:01.291Z,2.63
2023-04-10T19:21:32.013Z,4.88
2023-04-10T19:24:00.268Z,4.85
2023-04-10T19:26:28.500Z,3.58
2023-04-10T19:29:00.759Z,2.53
2023-04-10T19:31:31.883Z,5.68
2023-04-10T19:34:04.783Z,4.38
2023-04-10T19:36:40.363Z,6.55
2023-04-10T19:39:08.701Z,4.88
2023-04-10T19:41:44.344Z,2.60
2023-04-10T19:44:22.608Z,3.08
2023-04-10T19:46:52.916Z,2.20
2023-04-10T19:49:21.099Z,2.22
2023-04-10T19:51:50.855Z,2.45
2023-04-10T19:54:19.344Z,2.95
2023-04-10T19:56:47.753Z,2.22
2023-04-10T19:59:17.233Z,2.80
2023-04-10T20:01:46.931Z,4.20
2023-04-10T20:04:15.394Z,3.83
2023-04-10T20:06:44.151Z,3.80
2023-04-10T20:09:13.358Z,4.40
2023-04-10T20:11:42.041Z,4.45
2023-04-10T20:14:11.622Z,5.07
2023-04-10T20:16:41.303Z,4.38
2023-04-10T20:19:10.906Z,5.13
2023-04-10T20:21:39.090Z,4.40
2023-04-10T20:24:08.004Z,3.88
2023-04-10T20:26:36.250Z,3.38
2023-04-10T20:29:07.674Z,27.42
2023-04-10T20:31:36.189Z,28.35
2023-04-10T20:34:04.781Z,31.45
2023-04-10T20:36:36.464Z,29.90
2023-04-10T20:39:04.767Z,19.73
2023-04-10T20:41:33.190Z,11.02
2023-04-10T20:44:01.514Z,15.85
2023-04-10T20:46:35.492Z,5.40
2023-04-10T20:49:04.075Z,4.47
2023-04-10T20:51:37.176Z,9.57
2023-04-10T20:54:07.405Z,3.95
2023-04-10T20:56:42.701Z,3.80
2023-04-10T20:59:12.316Z,4.20
2023-04-10T21:01:40.714Z,3.05
2023-04-10T21:04:09.501Z,2.92
2023-04-10T21:06:37.758Z,3.05
2023-04-10T21:09:07.385Z,2.20
2023-04-10T21:11:35.607Z,3.67
2023-04-10T21:14:03.892Z,3.97
2023-04-10T21:16:32.162Z,4.70
2023-04-10T21:19:00.313Z,6.55
2023-04-10T21:21:30.817Z,7.38
2023-04-10T21:23:59.013Z,6.60
2023-04-10T21:26:28.520Z,6.10
2023-04-10T21:28:56.752Z,5.13
2023-04-10T21:31:25.006Z,4.60
2023-04-10T21:33:53.179Z,4.63
2023-04-10T21:36:21.388Z,6.82
2023-04-10T21:38:49.537Z,16.90
2023-04-10T21:41:18.038Z,16.88
2023-04-10T21:43:47.620Z,10.93
2023-04-10T21:46:15.963Z,8.32
2023-04-10T21:48:44.223Z,7.25
2023-04-10T21:51:15.417Z,8.75
2023-04-10T21:53:46.682Z,8.45
2023-04-10T21:56:14.837Z,7.68
2023-04-10T21:58:43.025Z,6.90
2023-04-10T22:01:12.733Z,7.70
2023-04-10T22:03:41.116Z,12.80
2023-04-10T22:06:09.878Z,20.88
2023-04-10T22:08:39.070Z,18.58
2023-04-10T22:11:07.738Z,13.15
2023-04-10T22:13:35.909Z,10.65
2023-04-10T22:16:05.328Z,8.18
2023-04-10T22:18:34.892Z,6.88
2023-04-10T22:21:03.150Z,6.35
2023-04-10T22:23:32.215Z,6.05
2023-04-10T22:26:01.034Z,6.25
2023-04-10T22:28:29.357Z,8.18
2023-04-10T22:30:57.599Z,7.72
2023-04-10T22:33:25.801Z,7.57
2023-04-10T22:35:55.333Z,8.23
2023-04-10T22:38:23.575Z,7.45
2023-04-10T22:40:54.587Z,9.27
2023-04-10T22:43:22.765Z,7.93
2023-04-10T22:45:52.623Z,7.63
2023-04-10T22:48:20.925Z,7.50
2023-04-10T22:50:49.114Z,9.07
2023-04-10T22:53:18.675Z,8.27
2023-04-10T22:55:46.866Z,6.97
2023-04-10T22:58:15.094Z,9.05
2023-04-10T23:00:43.249Z,7.45
2023-04-10T23:03:11.613Z,6.95
2023-04-10T23:05:39.944Z,5.88
2023-04-10T23:08:08.120Z,5.90
2023-04-10T23:10:37.623Z,5.80
2023-04-10T23:13:06.038Z,6.40
2023-04-10T23:15:34.591Z,7.07
2023-04-10T23:18:02.973Z,5.80
2023-04-10T23:20:31.259Z,7.75
2023-04-10T23:22:59.420Z,12.35
2023-04-10T23:25:27.614Z,12.70
2023-04-10T23:27:57.907Z,9.13
2023-04-10T23:30:26.274Z,7.07
2023-04-10T23:32:54.511Z,8.77
2023-04-10T23:35:23.031Z,7.32
2023-04-10T23:37:51.726Z,9.52
2023-04-10T23:40:20.423Z,10.82
2023-04-10T23:42:48.949Z,10.43
2023-04-10T23:45:18.594Z,9.15
2023-04-10T23:47:47.315Z,8.93
2023-04-10T23:50:17.072Z,7.60
2023-04-10T23:52:49.520Z,6.78
2023-04-10T23:55:17.963Z,8.02
2023-04-10T23:57:46.171Z,7.25
